^^

..:: Storico WU ::..




Lo storico viene creato da WUnderground con i dati che la stazione Meteomincio invia al loro server. L' aggiornamento viene fatto ogni 5 minuti circa, tuttavia possono esserci intervalli pi¨ ampi a causa di errori, interruzioni di servizio o problemi nell' invio tramite FTP.


Storico stazione MeteoMincio
Giorno Sommario per Ottobre 20, 2022 Unità:  Inglese    Metrico   Entrambi
Giorno Settimana Mese Anno
  Max: Min: Media:
Temperatura: 73.9 °F 53.6 °F 63.1 °F
Dew Point: 63.3 °F 51.3 °F 57.9 °F
Umidità: 92% 66.4% 84%
Velocità vento: 6.2mph 0mph 1.8mph
Raffica: 12mph - -
Direzione- - East
Pressione: 30.2 in 30.1 in -
Precipitazioni: 0 in    
 
 
Tabulato Dati per Ottobre 20, 2022
Ora Temperatura Dew Point Pressione Direzione Velocità vento Raffica Umidità Intensità pioggia (oraria) Info solare Situazione
00:04 59.7 °F 56.3 °F 30.1 in ENE 3.4 mph 5 mph 88.2% 0 in 0 W/m2
00:09 59.4 °F 56.1 °F 30.1 in ENE 2.9 mph 5 mph 89% 0 in 0 W/m2
00:14 59.2 °F 56.1 °F 30.1 in ENE 2.2 mph 4 mph 89.3% 0 in 0 W/m2
00:19 59 °F 56.1 °F 30.1 in ENE 2.2 mph 3.5 mph 90% 0 in 0 W/m2
00:24 59 °F 56.1 °F 30.2 in East 2.2 mph 3.5 mph 90% 0 in 0 W/m2
00:29 59.2 °F 56.3 °F 30.1 in East 2.4 mph 3.5 mph 90% 0 in 0 W/m2
00:34 59.2 °F 56.3 °F 30.1 in East 2.4 mph 5 mph 90% 0 in 0 W/m2
00:39 59.2 °F 56.3 °F 30.1 in East 2.4 mph 5 mph 90% 0 in 0 W/m2
00:44 59.4 °F 56.1 °F 30.1 in ENE 2.1 mph 3.5 mph 89.4% 0 in 0 W/m2
00:49 59.2 °F 56.1 °F 30.1 in ENE 1.8 mph 3.5 mph 89.7% 0 in 0 W/m2
00:54 59 °F 56.1 °F 30.1 in ENE 1.7 mph 3.5 mph 90% 0 in 0 W/m2
00:59 58.8 °F 55.9 °F 30.1 in ENE 1.9 mph 3.5 mph 90% 0 in 0 W/m2
01:04 58.8 °F 55.9 °F 30.1 in NE 1.6 mph 3 mph 90% 0 in 0 W/m2
01:09 58.8 °F 55.9 °F 30.2 in NE 1.6 mph 2.3 mph 90% 0 in 0 W/m2
01:14 58.8 °F 55.9 °F 30.1 in NE 2 mph 4 mph 90% 0 in 0 W/m2
01:19 58.8 °F 55.8 °F 30.2 in NE 2.8 mph 4 mph 90% 0 in 0 W/m2
01:24 58.8 °F 55.9 °F 30.2 in NE 3 mph 4 mph 90% 0 in 0 W/m2
01:29 59 °F 55.9 °F 30.2 in NE 3 mph 5 mph 89.2% 0 in 0 W/m2
01:34 59 °F 55.8 °F 30.2 in ENE 2.7 mph 5 mph 89% 0 in 0 W/m2
01:39 58.6 °F 55.4 °F 30.2 in ENE 2.2 mph 5 mph 89% 0 in 0 W/m2
01:44 58.3 °F 55.2 °F 30.2 in NE 2.3 mph 3.5 mph 89.4% 0 in 0 W/m2
01:49 58.3 °F 55.4 °F 30.2 in NE 2.1 mph 3.5 mph 90% 0 in 0 W/m2
01:54 58.3 °F 55.4 °F 30.2 in NE 1.7 mph 3.5 mph 90% 0 in 0 W/m2
01:59 58.1 °F 55.2 °F 30.2 in NE 1.7 mph 3.5 mph 90% 0 in 0 W/m2
02:04 58.3 °F 55.4 °F 30.2 in NE 1.3 mph 3 mph 90% 0 in 0 W/m2
02:09 58.3 °F 55.4 °F 30.2 in NE 0.2 mph 2 mph 90% 0 in 0 W/m2
02:14 58.1 °F 55.2 °F 30.2 in NNE 0.7 mph 2.3 mph 89.8% 0 in 0 W/m2
02:19 58.1 °F 55 °F 30.2 in NNE 1.9 mph 3.5 mph 89.3% 0 in 0 W/m2
02:24 58.1 °F 54.9 °F 30.2 in NE 2.5 mph 4 mph 89% 0 in 0 W/m2
02:29 58.3 °F 55 °F 30.2 in NE 3 mph 4 mph 89% 0 in 0 W/m2
02:34 58.5 °F 55 °F 30.2 in NE 3 mph 5 mph 88.3% 0 in 0 W/m2
02:39 58.5 °F 55 °F 30.2 in NE 3.2 mph 5 mph 88% 0 in 0 W/m2
02:44 58.5 °F 55 °F 30.2 in NE 2.7 mph 5 mph 88% 0 in 0 W/m2
02:49 58.5 °F 55 °F 30.2 in ENE 2.6 mph 5 mph 88% 0 in 0 W/m2
02:54 58.3 °F 54.9 °F 30.2 in ENE 2.7 mph 4 mph 88% 0 in 0 W/m2
02:59 58.1 °F 54.5 °F 30.2 in NE 2.5 mph 4 mph 88% 0 in 0 W/m2
03:04 57.7 °F 54.3 °F 30.2 in NE 2.7 mph 4 mph 88% 0 in 0 W/m2
03:09 57.7 °F 54.5 °F 30.2 in NE 3.1 mph 5 mph 88.8% 0 in 0 W/m2
03:14 57.9 °F 54.7 °F 30.1 in ENE 2.6 mph 5 mph 88.6% 0 in 0 W/m2
03:19 57.7 °F 54.3 °F 30.2 in ENE 2.1 mph 5 mph 88% 0 in 0 W/m2
03:24 57.6 °F 54.3 °F 30.2 in NE 2.7 mph 4 mph 88.8% 0 in 0 W/m2
03:29 57.7 °F 54.5 °F 30.2 in NE 2.8 mph 4 mph 89% 0 in 0 W/m2
03:34 57.9 °F 54.5 °F 30.2 in NE 2.7 mph 4 mph 88.4% 0 in 0 W/m2
03:39 57.9 °F 54.5 °F 30.2 in NE 3.1 mph 4 mph 88.3% 0 in 0 W/m2
03:44 58.1 °F 54.7 °F 30.1 in NE 3 mph 4 mph 88% 0 in 0 W/m2
03:49 58.1 °F 54.7 °F 30.1 in NE 3.4 mph 5 mph 88% 0 in 0 W/m2
03:54 58.1 °F 54.7 °F 30.1 in NE 3 mph 5 mph 88% 0 in 0 W/m2
03:59 58.3 °F 54.5 °F 30.1 in NE 3.3 mph 5 mph 87.6% 0 in 0 W/m2
04:04 58.3 °F 54.3 °F 30.1 in NE 3.2 mph 5 mph 87% 0 in 0 W/m2
04:09 58.1 °F 54.3 °F 30.1 in NE 3.3 mph 5 mph 87% 0 in 0 W/m2
04:14 58.1 °F 54.1 °F 30.1 in NE 2.6 mph 4 mph 87% 0 in 0 W/m2
04:19 57.9 °F 54.3 °F 30.1 in NE 2.7 mph 4 mph 87.8% 0 in 0 W/m2
04:24 57.7 °F 54.3 °F 30.2 in NE 3.1 mph 4 mph 88% 0 in 0 W/m2
04:29 57.7 °F 54.3 °F 30.1 in NE 3.3 mph 5 mph 88% 0 in 0 W/m2
04:34 57.9 °F 54.3 °F 30.1 in NE 3.3 mph 5 mph 88% 0 in 0 W/m2
04:39 57.9 °F 54.5 °F 30.1 in NE 3.6 mph 5 mph 88% 0 in 0 W/m2
04:44 58.1 °F 54.5 °F 30.1 in NE 3.9 mph 5 mph 88% 0 in 0 W/m2
04:49 58.1 °F 54.3 °F 30.1 in NE 3.4 mph 5 mph 87.4% 0 in 0 W/m2
04:54 58.1 °F 54.3 °F 30.2 in NE 3.5 mph 5 mph 87.2% 0 in 0 W/m2
04:59 58.1 °F 54.5 °F 30.2 in NE 3.2 mph 5 mph 87.8% 0 in 0 W/m2
05:04 57.9 °F 54.3 °F 30.2 in NE 3 mph 5 mph 88% 0 in 0 W/m2
05:09 57.7 °F 54.1 °F 30.2 in NE 3.1 mph 5 mph 88% 0 in 0 W/m2
05:14 57.6 °F 54 °F 30.2 in NE 2.6 mph 4 mph 88% 0 in 0 W/m2
05:19 57.4 °F 54 °F 30.2 in ENE 2.7 mph 5 mph 88% 0 in 0 W/m2
05:24 57 °F 53.8 °F 30.2 in East 2.3 mph 5 mph 88.6% 0 in 0 W/m2
05:29 56.5 °F 53.2 °F 30.2 in East 1 mph 2.3 mph 89% 0 in 0 W/m2
05:34 55.9 °F 53.2 °F 30.2 in East 1.2 mph 2.3 mph 90.2% 0 in 0 W/m2
05:39 55.8 °F 52.9 °F 30.2 in East 1.4 mph 2.3 mph 90% 0 in 0 W/m2
05:44 55.6 °F 52.7 °F 30.2 in East 0.6 mph 2.3 mph 90.6% 0 in 0 W/m2
05:49 55.4 °F 52.9 °F 30.2 in Calm     91% 0 in 0 W/m2
05:54 55.4 °F 52.7 °F 30.2 in Calm     91% 0 in 0 W/m2
05:59 55.4 °F 52.7 °F 30.2 in Calm     91% 0 in 0 W/m2
06:04 55.4 °F 52.7 °F 30.2 in Calm     91% 0 in 0 W/m2
06:09 55.2 °F 52.7 °F 30.2 in Calm     91% 0 in 0 W/m2
06:14 55.4 °F 52.7 °F 30.2 in Calm     91% 0 in 0 W/m2
06:19 55.4 °F 52.7 °F 30.2 in Calm     91% 0 in 0 W/m2
06:24 55.2 °F 52.7 °F 30.2 in Calm     91% 0 in 0 W/m2
06:29 55 °F 52.5 °F 30.2 in Calm     91% 0 in 0 W/m2
06:34 55.2 °F 52.5 °F 30.2 in Calm     91% 0 in 0 W/m2
06:39 55.2 °F 52.5 °F 30.2 in Calm     91% 0 in 0 W/m2
06:44 55 °F 52.5 °F 30.2 in Calm     91% 0 in 0 W/m2
06:49 54.9 °F 52.3 °F 30.2 in Calm     91% 0 in 0 W/m2
06:54 54.9 °F 52.2 °F 30.2 in Calm     91% 0 in 0 W/m2
06:59 54.7 °F 52.2 °F 30.2 in Calm     91% 0 in 0 W/m2
07:04 54.5 °F 52 °F 30.2 in Calm     91% 0 in 0 W/m2
07:09 54.3 °F 51.6 °F 30.2 in Calm     91% 0 in 0 W/m2
07:14 54 °F 51.6 °F 30.2 in Calm     91.5% 0 in 0 W/m2
07:19 54.1 °F 51.8 °F 30.2 in Calm     92% 0 in 0 W/m2
07:24 54.1 °F 51.8 °F 30.2 in Calm     92% 0 in 0 W/m2
07:29 54.1 °F 51.8 °F 30.2 in Calm     92% 0 in 0 W/m2
07:34 54 °F 51.8 °F 30.2 in Calm     92% 0 in 7 W/m2
07:39 54 °F 51.4 °F 30.2 in Calm     91.8% 0 in 9 W/m2
07:44 54 °F 51.6 °F 30.2 in Calm     92% 0 in 11 W/m2
07:49 53.8 °F 51.6 °F 30.2 in Calm     92% 0 in 16 W/m2
07:54 53.8 °F 51.4 °F 30.2 in Calm     92% 0 in 19 W/m2
07:59 53.8 °F 51.4 °F 30.2 in Calm     92% 0 in 26 W/m2
08:04 53.6 °F 51.3 °F 30.2 in Calm     92% 0 in 32 W/m2
08:09 53.8 °F 51.4 °F 30.2 in Calm     92% 0 in 33 W/m2
08:14 54.3 °F 52 °F 30.2 in Calm     92% 0 in 35 W/m2
08:19 54.7 °F 52.3 °F 30.2 in Calm     92% 0 in 49 W/m2
08:24 54.9 °F 52.5 °F 30.2 in Calm     92% 0 in 56 W/m2
08:29 55.2 °F 52.7 °F 30.2 in Calm     91.6% 0 in 70 W/m2
08:34 55.4 °F 52.7 °F 30.2 in Calm     91% 0 in 79 W/m2
08:39 55.6 °F 53.1 °F 30.2 in Calm     91% 0 in 84 W/m2
08:44 55.9 °F 53.2 °F 30.2 in Calm     90.6% 0 in 81 W/m2
08:49 56.1 °F 53.2 °F 30.2 in Calm     90% 0 in 93 W/m2
08:54 56.5 °F 53.6 °F 30.2 in Calm     90% 0 in 121 W/m2
08:59 57 °F 54.1 °F 30.2 in Calm     90% 0 in 135 W/m2
09:04 57.6 °F 54.3 °F 30.2 in Calm     89.1% 0 in 171 W/m2
09:09 58.3 °F 55 °F 30.2 in Calm     89% 0 in 174 W/m2
09:14 59.2 °F 55.8 °F 30.2 in Calm     88.3% 0 in 174 W/m2
09:19 59.5 °F 55.9 °F 30.2 in East 0.7 mph 3.5 mph 88% 0 in 144 W/m2
09:24 59.5 °F 55.9 °F 30.2 in East 1 mph 3 mph 87.8% 0 in 146 W/m2
09:29 59.9 °F 56.3 °F 30.2 in ENE 1.4 mph 3.5 mph 88% 0 in 162 W/m2
09:34 60.1 °F 56.5 °F 30.2 in East 1.5 mph 3.5 mph 88% 0 in 153 W/m2
09:39 60.1 °F 56.5 °F 30.2 in East 1.5 mph 3.5 mph 88% 0 in 193 W/m2
09:44 60.4 °F 56.8 °F 30.2 in East 1.4 mph 3.5 mph 88% 0 in 193 W/m2
09:49 61 °F 57.4 °F 30.2 in East 0.2 mph 3 mph 88% 0 in 178 W/m2
09:54 61.2 °F 57.4 °F 30.2 in Calm   2 mph 87.2% 0 in 156 W/m2
09:59 61.5 °F 57.6 °F 30.2 in WSW 1.4 mph 3.5 mph 86.4% 0 in 141 W/m2
10:04 61.7 °F 57.6 °F 30.2 in West 1.7 mph 3.5 mph 86% 0 in 153 W/m2
10:09 61.9 °F 57.4 °F 30.2 in West 0.5 mph 3 mph 85.2% 0 in 165 W/m2
10:14 62.1 °F 57.6 °F 30.2 in SW 0.3 mph 1.2 mph 85% 0 in 188 W/m2
10:19 62.4 °F 57.7 °F 30.2 in SSE 0.4 mph 2.3 mph 85% 0 in 192 W/m2
10:24 62.6 °F 57.7 °F 30.2 in SSE 0.1 mph 2 mph 84.3% 0 in 195 W/m2
10:29 62.8 °F 57.9 °F 30.2 in South 0.2 mph 1.2 mph 83.8% 0 in 192 W/m2
10:34 63 °F 57.7 °F 30.2 in Calm   1 mph 83% 0 in 185 W/m2
10:39 63.1 °F 57.9 °F 30.2 in Calm     83% 0 in 186 W/m2
10:44 63.3 °F 58.1 °F 30.2 in WSW 0.2 mph 2.3 mph 83% 0 in 225 W/m2
10:49 63.7 °F 58.5 °F 30.2 in WSW 0.7 mph 3 mph 82.9% 0 in 276 W/m2
10:54 64 °F 58.8 °F 30.2 in WSW 1.3 mph 3.5 mph 83% 0 in 236 W/m2
10:59 64.6 °F 59 °F 30.2 in SW 0.9 mph 3 mph 82.2% 0 in 229 W/m2
11:04 64.8 °F 59.2 °F 30.2 in SW 1.4 mph 3.5 mph 82% 0 in 223 W/m2
11:09 65.1 °F 59.2 °F 30.2 in WSW 1.1 mph 3.5 mph 81.2% 0 in 253 W/m2
11:14 65.5 °F 59.5 °F 30.2 in WSW 0.4 mph 2 mph 81% 0 in 230 W/m2
11:19 65.7 °F 59.5 °F 30.2 in WSW 1 mph 2.3 mph 80.4% 0 in 225 W/m2
11:24 66 °F 59.7 °F 30.2 in WSW 1.1 mph 3 mph 80.2% 0 in 297 W/m2
11:29 66.2 °F 59.7 °F 30.2 in WSW 2.2 mph 4 mph 79.7% 0 in 538 W/m2
11:34 66.9 °F 60.3 °F 30.2 in West 2.4 mph 4 mph 79.1% 0 in 515 W/m2
11:39 67.1 °F 59.9 °F 30.2 in WSW 1.9 mph 4 mph 78% 0 in 508 W/m2
11:44 67.5 °F 60.3 °F 30.2 in SW 0.7 mph 3.5 mph 78% 0 in 504 W/m2
11:49 68.4 °F 60.6 °F 30.2 in South 0.6 mph 3 mph 76.7% 0 in 487 W/m2
11:54 68.5 °F 60.8 °F 30.2 in South 0.5 mph 2.3 mph 76.4% 0 in 468 W/m2
11:59 68.9 °F 61.3 °F 30.2 in SE 1.4 mph 4 mph 76.7% 0 in 469 W/m2
12:04 69.1 °F 61.5 °F 30.2 in ESE 2.6 mph 7 mph 76.8% 0 in 480 W/m2
12:09 69.3 °F 61.7 °F 30.2 in ESE 4.5 mph 8.1 mph 77% 0 in 473 W/m2
12:14 69.4 °F 61.9 °F 30.2 in East 2.5 mph 8 mph 77.2% 0 in 452 W/m2
12:19 69.8 °F 62.2 °F 30.2 in ESE 2 mph 5 mph 76.8% 0 in 478 W/m2
12:24 70.2 °F 62.4 °F 30.2 in SE 1.8 mph 5 mph 76.6% 0 in 494 W/m2
12:29 70.2 °F 62.2 °F 30.2 in SSE 2.4 mph 5 mph 76.4% 0 in 483 W/m2
12:34 70.2 °F 62.4 °F 30.2 in ESE 1.9 mph 5 mph 76.8% 0 in 492 W/m2
12:39 70.5 °F 62.8 °F 30.2 in SE 1.4 mph 5 mph 76.5% 0 in 492 W/m2
12:44 70.7 °F 62.8 °F 30.2 in SE 1.7 mph 5 mph 76% 0 in 482 W/m2
12:49 71.1 °F 63 °F 30.2 in East 2.9 mph 7 mph 75.9% 0 in 497 W/m2
12:54 71.4 °F 63.3 °F 30.2 in East 3.9 mph 9 mph 75.6% 0 in 497 W/m2
12:59 71.6 °F 63.3 °F 30.2 in ESE 5.5 mph 9.2 mph 75% 0 in 462 W/m2
13:04 71.8 °F 63.3 °F 30.2 in SE 4.5 mph 9 mph 75% 0 in 510 W/m2
13:09 72 °F 63.1 °F 30.2 in ESE 4 mph 7 mph 73.8% 0 in 490 W/m2
13:14 72.1 °F 63.3 °F 30.2 in ESE 5.7 mph 9.2 mph 73.5% 0 in 496 W/m2
13:19 72.1 °F 63 °F 30.2 in East 4.3 mph 8.1 mph 72.9% 0 in 496 W/m2
13:24 72.3 °F 62.8 °F 30.2 in East 4.2 mph 9.2 mph 72% 0 in 478 W/m2
13:29 72.7 °F 63 °F 30.2 in East 5.1 mph 11.5 mph 71.7% 0 in 450 W/m2
13:34 72.5 °F 63 °F 30.2 in East 5.1 mph 12 mph 71.8% 0 in 450 W/m2
13:39 72.7 °F 63 °F 30.2 in ENE 5.9 mph 12 mph 71.6% 0 in 385 W/m2
13:44 72.9 °F 63 °F 30.2 in ENE 5.6 mph 9.2 mph 71.2% 0 in 353 W/m2
13:49 72.5 °F 62.6 °F 30.2 in East 4.5 mph 8.1 mph 71.2% 0 in 345 W/m2
13:54 72.5 °F 62.6 °F 30.2 in ENE 5.2 mph 8.1 mph 70.8% 0 in 345 W/m2
13:59 72.7 °F 62.4 °F 30.2 in ENE 5.3 mph 10 mph 70.5% 0 in 362 W/m2
14:04 72.9 °F 62.1 °F 30.2 in East 6.1 mph 10.4 mph 68.9% 0 in 327 W/m2
14:09 72.7 °F 62.1 °F 30.2 in East 5.7 mph 9.2 mph 69.4% 0 in 279 W/m2
14:14 72.5 °F 61.9 °F 30.2 in East 4.8 mph 9.2 mph 69.4% 0 in 332 W/m2
14:19 72.9 °F 61.7 °F 30.2 in East 4 mph 9.2 mph 68.3% 0 in 325 W/m2
14:24 72.9 °F 61.9 °F 30.2 in East 5 mph 9 mph 68.2% 0 in 371 W/m2
14:29 73 °F 61.9 °F 30.2 in East 5.9 mph 9.2 mph 67.9% 0 in 418 W/m2
14:34 73.2 °F 61.7 °F 30.1 in East 6.2 mph 10 mph 67% 0 in 439 W/m2
14:39 73.6 °F 62.1 °F 30.1 in ENE 5.2 mph 10 mph 66.9% 0 in 432 W/m2
14:44 73.9 °F 62.1 °F 30.1 in East 4.7 mph 8.1 mph 66.4% 0 in 432 W/m2
14:49 73.8 °F 61.9 °F 30.1 in East 5.4 mph 11.5 mph 66.7% 0 in 408 W/m2
14:54 73.6 °F 61.7 °F 30.1 in ENE 5 mph 12 mph 66.7% 0 in 295 W/m2
14:59 73.2 °F 61.9 °F 30.1 in East 5 mph 10.4 mph 67.6% 0 in 223 W/m2
15:04 72.9 °F 61.5 °F 30.1 in East 4.9 mph 10 mph 67.4% 0 in 276 W/m2
15:09 73 °F 61.7 °F 30.1 in East 4.2 mph 8.1 mph 67.7% 0 in 287 W/m2
15:14 73 °F 61.7 °F 30.1 in ENE 4 mph 7 mph 67.6% 0 in 243 W/m2
15:19 72.9 °F 61.7 °F 30.1 in East 3.1 mph 7 mph 68% 0 in 336 W/m2
15:24 72.9 °F 62.1 °F 30.1 in East 2.5 mph 7 mph 68.7% 0 in 253 W/m2
15:29 72.9 °F 61.9 °F 30.1 in East 3.2 mph 7 mph 68.4% 0 in 214 W/m2
15:34 72.9 °F 62.1 °F 30.1 in ESE 2.8 mph 7 mph 68.8% 0 in 204 W/m2
15:39 72.9 °F 62.1 °F 30.1 in ESE 2.8 mph 5 mph 69.3% 0 in 204 W/m2
15:44 72.7 °F 61.9 °F 30.1 in ESE 2 mph 4 mph 69.2% 0 in 174 W/m2
15:49 72.5 °F 61.9 °F 30.1 in ESE 2.7 mph 5 mph 69.3% 0 in 146 W/m2
15:54 72.3 °F 62.2 °F 30.1 in ESE 2.4 mph 5 mph 70.8% 0 in 151 W/m2
15:59 72.1 °F 62.4 °F 30.1 in ESE 3.4 mph 6 mph 71.2% 0 in 156 W/m2
16:04 72.1 °F 62.2 °F 30.1 in ESE 2.1 mph 6 mph 71% 0 in 171 W/m2
16:09 72.1 °F 62.2 °F 30.1 in ESE 2.5 mph 5 mph 70.9% 0 in 176 W/m2
16:14 72.3 °F 62.6 °F 30.1 in ESE 2.2 mph 5 mph 71.4% 0 in 202 W/m2
16:19 72.3 °F 62.4 °F 30.1 in East 2.1 mph 5 mph 71.2% 0 in 234 W/m2
16:24 72.5 °F 62.8 °F 30.1 in East 2.1 mph 5 mph 71.4% 0 in 232 W/m2
16:29 72.7 °F 62.6 °F 30.1 in ESE 1.6 mph 4 mph 71% 0 in 186 W/m2
16:34 72.5 °F 62.6 °F 30.1 in East 2.4 mph 4 mph 71% 0 in 151 W/m2
16:39 72.3 °F 62.4 °F 30.1 in East 1.7 mph 3.5 mph 71% 0 in 135 W/m2
16:44 72.1 °F 62.4 °F 30.1 in ESE 2.1 mph 5 mph 71.2% 0 in 130 W/m2
16:49 72 °F 62.4 °F 30.1 in East 1.9 mph 5 mph 71.5% 0 in 118 W/m2
16:54 71.8 °F 62.6 °F 30.1 in East 2.1 mph 5 mph 72.9% 0 in 111 W/m2
16:59 71.8 °F 62.4 °F 30.1 in East 1.6 mph 5 mph 72.5% 0 in 104 W/m2
17:04 71.6 °F 62.6 °F 30.1 in ESE 1.9 mph 3.5 mph 73% 0 in 84 W/m2
17:09 71.4 °F 62.2 °F 30.1 in East 2 mph 3.5 mph 73% 0 in 77 W/m2
17:14 71.2 °F 62.4 °F 30.1 in East 1 mph 3.5 mph 73.8% 0 in 67 W/m2
17:19 71.1 °F 62.6 °F 30.1 in East 0.4 mph 3 mph 74.7% 0 in 60 W/m2
17:24 71.1 °F 62.4 °F 30.1 in East 0.6 mph 2.3 mph 74.5% 0 in 54 W/m2
17:29 71.1 °F 62.6 °F 30.1 in Calm   2 mph 74.5% 0 in 51 W/m2
17:34 70.9 °F 62.6 °F 30.1 in Calm     75% 0 in 53 W/m2
17:39 70.9 °F 62.6 °F 30.1 in Calm     75% 0 in 53 W/m2
17:44 70.7 °F 62.8 °F 30.1 in Calm     75.7% 0 in 53 W/m2
17:49 70.5 °F 62.6 °F 30.1 in Calm     76% 0 in 46 W/m2
17:54 70.3 °F 62.4 °F 30.1 in Calm     75.9% 0 in 37 W/m2
17:59 69.8 °F 62.2 °F 30.1 in Calm     77.2% 0 in 26 W/m2
18:04 69.3 °F 62.1 °F 30.1 in Calm     78.1% 0 in 18 W/m2
18:09 69.1 °F 62.2 °F 30.1 in Calm     78.8% 0 in 12 W/m2
18:14 68.7 °F 61.9 °F 30.1 in Calm     79% 0 in 9 W/m2
18:19 68.2 °F 61.9 °F 30.1 in Calm     80.4% 0 in 5 W/m2
18:24 67.5 °F 61.7 °F 30.1 in Calm     81.8% 0 in 0 W/m2
18:29 67.5 °F 61.9 °F 30.1 in Calm     82% 0 in 0 W/m2
18:34 67.5 °F 61.9 °F 30.1 in Calm     81.9% 0 in 0 W/m2
18:39 67.3 °F 61.5 °F 30.1 in Calm     82.1% 0 in 0 W/m2
18:44 66.7 °F 61.5 °F 30.1 in Calm     83% 0 in 0 W/m2
18:49 66.6 °F 61.3 °F 30.1 in Calm     83% 0 in 0 W/m2
18:54 66.4 °F 61.2 °F 30.1 in Calm     83.6% 0 in 0 W/m2
18:59 66.2 °F 61.2 °F 30.1 in Calm     84% 0 in 0 W/m2
19:04 66.2 °F 61.2 °F 30.1 in Calm     84% 0 in 0 W/m2
19:09 65.8 °F 61 °F 30.1 in Calm     84.1% 0 in 0 W/m2
19:14 65.7 °F 60.8 °F 30.1 in Calm     84.2% 0 in 0 W/m2
19:19 65.7 °F 60.8 °F 30.1 in Calm     84% 0 in 0 W/m2
19:24 65.5 °F 60.6 °F 30.1 in Calm     84.4% 0 in 0 W/m2
19:29 65.1 °F 60.6 °F 30.1 in Calm     85% 0 in 0 W/m2
19:34 65.1 °F 60.4 °F 30.1 in East 0.1 mph 2 mph 85% 0 in 0 W/m2
19:39 64.6 °F 60.1 °F 30.1 in East 1.8 mph 3.5 mph 85% 0 in 0 W/m2
19:44 64.4 °F 59.7 °F 30.1 in East 1 mph 3 mph 85.2% 0 in 0 W/m2
19:49 64.2 °F 59.9 °F 30.1 in East 1.1 mph 2.3 mph 86% 0 in 0 W/m2
19:54 64 °F 59.7 °F 30.1 in East 0.8 mph 2.3 mph 86% 0 in 0 W/m2
19:59 63.7 °F 59.5 °F 30.1 in East 0.3 mph 2 mph 86.2% 0 in 0 W/m2
20:04 63.5 °F 59.5 °F 30.1 in East 0.1 mph 1.2 mph 87% 0 in 0 W/m2
20:09 63.3 °F 59.4 °F 30.1 in Calm   1 mph 87% 0 in 0 W/m2
20:14 63.1 °F 59.4 °F 30.1 in Calm     87% 0 in 0 W/m2
20:19 63.1 °F 59.4 °F 30.1 in Calm   1 mph 87.5% 0 in 0 W/m2
20:24 63 °F 59.2 °F 30.1 in SSW 1.2 mph 3.5 mph 87.4% 0 in 0 W/m2
20:29 62.8 °F 59 °F 30.1 in WSW 0.2 mph 3 mph 87.2% 0 in 0 W/m2
20:34 62.6 °F 58.8 °F 30.1 in WSW 1.1 mph 2.3 mph 87% 0 in 0 W/m2
20:39 62.6 °F 58.5 °F 30.1 in West 0.5 mph 2.3 mph 86.2% 0 in 0 W/m2
20:44 62.6 °F 58.5 °F 30.1 in West 0.5 mph 2.3 mph 86% 0 in 0 W/m2
20:49 62.4 °F 58.5 °F 30.1 in West 0.4 mph 2.3 mph 86.5% 0 in 0 W/m2
20:54 62.4 °F 58.5 °F 30.1 in West 0.1 mph 2 mph 87% 0 in 0 W/m2
20:59 62.4 °F 58.5 °F 30.1 in West 0.3 mph 1.2 mph 87% 0 in 0 W/m2
21:04 62.2 °F 58.3 °F 30.1 in West 0.2 mph 1.2 mph 87% 0 in 0 W/m2
21:09 62.1 °F 58.3 °F 30.1 in West 0.1 mph 1.2 mph 87.4% 0 in 0 W/m2
21:14 61.9 °F 58.3 °F 30.1 in North 0.9 mph 2.3 mph 87.8% 0 in 0 W/m2
21:19 61.7 °F 58.1 °F 30.1 in ENE 2 mph 3.5 mph 88% 0 in 0 W/m2
21:24 61.5 °F 58.3 °F 30.1 in ENE 0.9 mph 3 mph 88.8% 0 in 0 W/m2
21:29 61.5 °F 58.3 °F 30.1 in NE 1.1 mph 3 mph 89% 0 in 0 W/m2
21:34 61.7 °F 58.3 °F 30.1 in North 1.6 mph 3.5 mph 89% 0 in 0 W/m2
21:39 61.7 °F 58.5 °F 30.1 in North 1.7 mph 3.5 mph 88.8% 0 in 0 W/m2
21:44 61.9 °F 58.3 °F 30.1 in North 1.5 mph 3.5 mph 88% 0 in 0 W/m2
21:49 62.1 °F 58.5 °F 30.1 in North 1.5 mph 3 mph 88% 0 in 0 W/m2
21:54 62.1 °F 58.5 °F 30.1 in North 1.4 mph 2.3 mph 88% 0 in 0 W/m2
21:59 61.7 °F 58.1 °F 30.1 in NNE 1.4 mph 3 mph 88% 0 in 0 W/m2
22:04 61.5 °F 58.1 °F 30.1 in ENE 2.7 mph 4 mph 88.8% 0 in 0 W/m2
22:09 61.7 °F 58.3 °F 30.1 in NE 2.5 mph 4 mph 89% 0 in 0 W/m2
22:14 61.7 °F 58.3 °F 30.1 in NE 2.1 mph 3.5 mph 88.4% 0 in 0 W/m2
22:19 61.7 °F 58.1 °F 30.1 in NE 1.6 mph 3 mph 88% 0 in 0 W/m2
22:24 61.5 °F 58.1 °F 30.1 in NNE 1.7 mph 3.5 mph 88.4% 0 in 0 W/m2
22:29 61.5 °F 58.1 °F 30.1 in NNE 2 mph 3.5 mph 89% 0 in 0 W/m2
22:34 61.5 °F 58.1 °F 30.1 in NNE 1.4 mph 3 mph 89% 0 in 0 W/m2
22:39 61.3 °F 57.9 °F 30.1 in NNE 0.3 mph 2.3 mph 88.5% 0 in 0 W/m2
22:44 61 °F 57.7 °F 30.1 in NNE 0.7 mph 2.3 mph 88.8% 0 in 0 W/m2
22:49 60.8 °F 57.6 °F 30.1 in NE 2 mph 3.5 mph 89% 0 in 0 W/m2
22:54 61 °F 57.6 °F 30.1 in NE 2.2 mph 3.5 mph 89% 0 in 0 W/m2
22:59 61 °F 57.7 °F 30.1 in NE 2.1 mph 3.5 mph 89% 0 in 0 W/m2
23:04 61 °F 57.6 °F 30.1 in NE 2.2 mph 4 mph 89% 0 in 0 W/m2
23:09 60.8 °F 57.6 °F 30.1 in NE 2.3 mph 4 mph 89% 0 in 0 W/m2
23:14 60.6 °F 57.4 °F 30.1 in ENE 1.6 mph 4 mph 89.3% 0 in 0 W/m2
23:19 60.4 °F 57.4 °F 30.1 in NE 2.6 mph 5 mph 90% 0 in 0 W/m2
23:24 60.4 °F 57.6 °F 30.1 in ENE 3.1 mph 4.6 mph 90.4% 0 in 0 W/m2
23:29 60.4 °F 57.6 °F 30.1 in ENE 3.7 mph 7 mph 90% 0 in 0 W/m2
23:34 60.6 °F 57.7 °F 30.1 in ENE 4.2 mph 7 mph 90% 0 in 0 W/m2
23:39 60.6 °F 57.7 °F 30.1 in ENE 4 mph 7 mph 90% 0 in 0 W/m2
23:44 60.6 °F 57.7 °F 30.1 in NE 3.4 mph 7 mph 90% 0 in 0 W/m2
23:49 60.6 °F 57.7 °F 30.1 in ENE 4.3 mph 7 mph 90% 0 in 0 W/m2
23:54 60.6 °F 57.7 °F 30.1 in ENE 4.6 mph 8 mph 90% 0 in 0 W/m2
23:59 60.6 °F 57.6 °F 30.1 in ENE 4.9 mph 8.1 mph 90% 0 in 0 W/m2
Stazione Meteorologica MeteoMincio Rivalta s/M (MN)
Con i complimenti di Weather Underground - 4 mb


METEO PILLOLE
Pressione atmosferica più alta sotto ai 750m di quota
Agata (261m) - Russia
Il 31 dicembre del 1968 l'anticiclone Siberiano spinse il livello di pressione fino a 1083.3 hPa.

Do NOT follow this link or you will be banned from the site!